createdAt,value
2018-01-25T00:02:01.602Z,61.50
2018-01-25T00:04:29.878Z,61.40
2018-01-25T00:06:58.176Z,61.40
2018-01-25T00:09:26.485Z,61.40
2018-01-25T00:11:55.549Z,61.30
2018-01-25T00:14:23.856Z,61.30
2018-01-25T00:16:52.896Z,61.20
2018-01-25T00:19:21.201Z,61.20
2018-01-25T00:21:49.495Z,61.20
2018-01-25T00:24:18.616Z,61.20
2018-01-25T00:26:46.920Z,61.20
2018-01-25T00:29:15.210Z,61.20
2018-01-25T00:31:43.842Z,61.10
2018-01-25T00:34:13.798Z,61.10
2018-01-25T00:36:42.101Z,61.00
2018-01-25T00:39:11.088Z,61.00
2018-01-25T00:41:39.368Z,61.00
2018-01-25T00:44:07.693Z,61.00
2018-01-25T00:46:36.722Z,61.00
2018-01-25T00:49:05.033Z,61.10
2018-01-25T00:51:33.314Z,61.00
2018-01-25T00:54:01.627Z,61.00
2018-01-25T00:56:29.926Z,61.10
2018-01-25T00:58:58.204Z,61.10
2018-01-25T01:01:26.552Z,61.10
2018-01-25T01:03:55.608Z,61.10
2018-01-25T01:06:23.912Z,61.10
2018-01-25T01:08:52.201Z,61.00
2018-01-25T01:11:20.507Z,60.90
2018-01-25T01:13:48.785Z,60.90
2018-01-25T01:16:17.054Z,60.90
2018-01-25T01:18:45.357Z,60.90
2018-01-25T01:21:13.649Z,60.80
2018-01-25T01:23:41.966Z,60.80
2018-01-25T01:26:11.022Z,60.70
2018-01-25T01:28:39.339Z,60.70
2018-01-25T01:31:08.414Z,61.50
2018-01-25T01:33:36.740Z,60.80
2018-01-25T01:36:05.032Z,61.00
2018-01-25T01:38:33.343Z,61.10
2018-01-25T01:41:01.632Z,61.00
2018-01-25T01:43:29.910Z,61.00
2018-01-25T01:45:58.219Z,61.80
2018-01-25T01:48:26.510Z,60.90
2018-01-25T01:50:54.816Z,61.00
2018-01-25T01:53:23.091Z,60.90
2018-01-25T01:55:51.701Z,61.00
2018-01-25T01:58:19.985Z,61.10
2018-01-25T02:00:48.253Z,62.20
2018-01-25T02:03:16.550Z,62.30
2018-01-25T02:05:44.820Z,62.30
2018-01-25T02:08:13.897Z,62.40
2018-01-25T02:10:42.167Z,63.10
2018-01-25T02:13:10.913Z,62.30
2018-01-25T02:15:39.208Z,61.50
2018-01-25T02:18:07.480Z,62.30
2018-01-25T02:20:35.795Z,62.30
2018-01-25T02:23:04.069Z,62.30
2018-01-25T02:25:32.380Z,62.30
2018-01-25T02:28:01.430Z,62.30
2018-01-25T02:30:30.004Z,62.30
2018-01-25T02:32:58.263Z,62.40
2018-01-25T02:35:26.536Z,62.30
2018-01-25T02:37:54.845Z,62.30
2018-01-25T02:40:23.107Z,62.30
2018-01-25T02:42:51.416Z,62.40
2018-01-25T02:45:19.684Z,62.30
2018-01-25T02:47:48.009Z,62.30
2018-01-25T02:50:17.065Z,62.20
2018-01-25T02:52:45.762Z,62.30
2018-01-25T02:55:14.049Z,62.40
2018-01-25T02:57:42.320Z,62.30
2018-01-25T03:00:10.620Z,62.20
2018-01-25T03:02:39.652Z,62.30
2018-01-25T03:05:08.412Z,62.20
2018-01-25T03:07:36.686Z,62.30
2018-01-25T03:10:05.728Z,62.20
2018-01-25T03:12:34.791Z,62.20
2018-01-25T03:15:03.067Z,62.10
2018-01-25T03:17:31.368Z,62.30
2018-01-25T03:19:59.643Z,62.30
2018-01-25T03:22:28.725Z,62.20
2018-01-25T03:24:57.063Z,62.30
2018-01-25T03:27:25.597Z,62.20
2018-01-25T03:29:53.880Z,62.10
2018-01-25T03:32:22.146Z,62.00
2018-01-25T03:34:50.458Z,61.70
2018-01-25T03:37:18.744Z,62.00
2018-01-25T03:39:47.061Z,62.10
2018-01-25T03:42:16.136Z,62.00
2018-01-25T03:44:44.460Z,61.90
2018-01-25T03:47:13.509Z,62.50
2018-01-25T03:49:41.867Z,61.80
2018-01-25T03:52:10.150Z,61.80
2018-01-25T03:54:38.422Z,61.80
2018-01-25T03:57:06.722Z,61.70
2018-01-25T03:59:35.003Z,61.60
2018-01-25T04:02:03.301Z,61.60
2018-01-25T04:04:32.376Z,62.30
2018-01-25T04:07:00.690Z,61.50
2018-01-25T04:09:28.998Z,61.50
2018-01-25T04:11:57.284Z,61.50
2018-01-25T04:14:25.574Z,61.50
2018-01-25T04:16:53.874Z,61.70
2018-01-25T04:19:22.972Z,61.80
2018-01-25T04:21:51.220Z,61.70
2018-01-25T04:24:19.824Z,61.70
2018-01-25T04:26:48.100Z,61.70
2018-01-25T04:29:16.373Z,61.70
2018-01-25T04:31:44.673Z,61.60
2018-01-25T04:34:12.934Z,61.60
2018-01-25T04:36:41.244Z,61.60
2018-01-25T04:39:09.550Z,61.50
2018-01-25T04:41:37.836Z,61.60
2018-01-25T04:44:06.134Z,61.60
2018-01-25T04:46:34.687Z,61.60
2018-01-25T04:49:02.944Z,61.50
2018-01-25T04:51:31.239Z,61.60
2018-01-25T04:53:59.535Z,61.50
2018-01-25T04:56:27.823Z,61.50
2018-01-25T04:58:56.112Z,61.40
2018-01-25T05:01:24.377Z,61.30
2018-01-25T05:03:53.026Z,61.40
2018-01-25T05:06:21.305Z,61.30
2018-01-25T05:08:49.602Z,61.30
2018-01-25T05:11:17.905Z,60.20
2018-01-25T05:13:46.193Z,60.00
2018-01-25T05:16:14.493Z,60.00
2018-01-25T05:18:43.546Z,59.70
2018-01-25T05:21:12.136Z,59.70
2018-01-25T05:23:40.439Z,59.70
2018-01-25T05:26:08.742Z,59.60
2018-01-25T05:28:37.052Z,59.50
2018-01-25T05:31:05.329Z,59.60
2018-01-25T05:33:33.640Z,59.60
2018-01-25T05:36:01.920Z,59.50
2018-01-25T05:38:30.492Z,59.40
2018-01-25T05:40:58.769Z,59.40
2018-01-25T05:43:27.046Z,59.40
2018-01-25T05:45:55.437Z,59.30
2018-01-25T05:48:23.711Z,59.40
2018-01-25T05:50:52.023Z,59.30
2018-01-25T05:53:20.318Z,59.20
2018-01-25T05:55:48.896Z,59.30
2018-01-25T05:58:17.220Z,59.20
2018-01-25T06:00:45.500Z,59.20
2018-01-25T06:03:13.822Z,59.20
2018-01-25T06:05:42.854Z,59.20
2018-01-25T06:08:11.164Z,60.10
2018-01-25T06:10:39.437Z,60.00
2018-01-25T06:13:08.112Z,60.10
2018-01-25T06:15:36.397Z,60.20
2018-01-25T06:18:04.672Z,60.20
2018-01-25T06:20:33.021Z,60.20
2018-01-25T06:23:01.282Z,60.20
2018-01-25T06:25:29.604Z,59.40
2018-01-25T06:27:57.918Z,60.30
2018-01-25T06:30:26.973Z,59.30
2018-01-25T06:32:55.260Z,60.20
2018-01-25T06:35:23.871Z,60.10
2018-01-25T06:37:52.953Z,60.30
2018-01-25T06:40:21.200Z,60.30
2018-01-25T06:42:49.766Z,60.30
2018-01-25T06:45:18.033Z,60.30
2018-01-25T06:47:46.331Z,60.30
2018-01-25T06:50:14.616Z,60.30
2018-01-25T06:52:43.227Z,60.40
2018-01-25T06:55:11.485Z,60.40
2018-01-25T06:57:39.753Z,60.40
2018-01-25T07:00:08.093Z,60.60
2018-01-25T07:02:37.139Z,60.50
2018-01-25T07:05:05.461Z,59.60
2018-01-25T07:07:34.491Z,59.50
2018-01-25T07:10:03.065Z,59.50
2018-01-25T07:12:31.401Z,59.50
2018-01-25T07:14:59.704Z,60.30
2018-01-25T07:17:28.043Z,60.40
2018-01-25T07:19:56.316Z,60.50
2018-01-25T07:22:25.064Z,60.50
2018-01-25T07:24:54.094Z,60.60
2018-01-25T07:27:22.379Z,60.60
2018-01-25T07:29:50.692Z,60.60
2018-01-25T07:32:18.980Z,60.70
2018-01-25T07:34:48.345Z,60.90
2018-01-25T07:37:16.606Z,60.50
2018-01-25T07:39:44.889Z,59.60
2018-01-25T07:42:13.193Z,59.60
2018-01-25T07:44:41.644Z,59.50
2018-01-25T07:47:10.051Z,59.60
2018-01-25T07:49:38.421Z,59.60
2018-01-25T07:52:08.321Z,59.90
2018-01-25T07:54:36.709Z,59.50
2018-01-25T07:57:05.479Z,59.50
2018-01-25T07:59:33.826Z,59.50
2018-01-25T08:02:02.955Z,59.50
2018-01-25T08:04:31.401Z,59.40
2018-01-25T08:07:00.530Z,59.40
2018-01-25T08:09:28.918Z,59.40
2018-01-25T08:11:57.316Z,59.40
2018-01-25T08:14:25.711Z,59.40
2018-01-25T08:16:54.144Z,59.40
2018-01-25T08:19:22.479Z,59.30
2018-01-25T08:21:50.761Z,59.40
2018-01-25T08:24:19.846Z,59.20
2018-01-25T08:26:48.173Z,59.00
2018-01-25T08:29:16.802Z,59.30
2018-01-25T08:31:45.144Z,59.30
2018-01-25T08:34:15.172Z,59.20
2018-01-25T08:36:43.509Z,59.20
2018-01-25T08:39:12.545Z,59.20
2018-01-25T08:41:40.851Z,59.20
2018-01-25T08:44:09.164Z,59.10
2018-01-25T08:46:38.240Z,59.20
2018-01-25T08:49:06.515Z,59.20
2018-01-25T08:51:35.140Z,59.20
2018-01-25T08:54:04.196Z,59.10
2018-01-25T08:56:32.494Z,59.10
2018-01-25T08:59:01.572Z,58.90
2018-01-25T09:01:29.902Z,58.90
2018-01-25T09:03:58.475Z,58.90
2018-01-25T09:06:26.777Z,58.90
2018-01-25T09:08:55.060Z,58.90
2018-01-25T09:11:23.377Z,58.80
2018-01-25T09:13:52.424Z,58.70
2018-01-25T09:16:20.736Z,58.70
2018-01-25T09:18:49.018Z,58.90
2018-01-25T09:21:17.739Z,58.80
2018-01-25T09:23:45.863Z,58.60
2018-01-25T09:26:14.127Z,58.60
2018-01-25T09:28:43.238Z,58.70
2018-01-25T09:31:11.510Z,58.60
2018-01-25T09:33:39.801Z,58.50
2018-01-25T09:36:08.121Z,58.30
2018-01-25T09:38:37.541Z,58.30
2018-01-25T09:41:05.817Z,58.20
2018-01-25T09:43:34.097Z,58.20
2018-01-25T09:46:02.417Z,58.10
2018-01-25T09:48:30.713Z,58.20
2018-01-25T09:50:59.316Z,58.10
2018-01-25T09:53:28.370Z,58.00
2018-01-25T09:55:56.640Z,58.00
2018-01-25T09:58:24.953Z,57.90
2018-01-25T10:00:53.268Z,57.90
2018-01-25T10:03:21.577Z,58.00
2018-01-25T10:05:49.917Z,57.90
2018-01-25T10:08:19.297Z,58.00
2018-01-25T10:10:47.610Z,58.00
2018-01-25T10:13:15.886Z,58.00
2018-01-25T10:15:44.186Z,58.00
2018-01-25T10:18:12.463Z,57.80
2018-01-25T10:20:40.772Z,57.70
2018-01-25T10:23:09.060Z,57.60
2018-01-25T10:25:37.671Z,57.50
2018-01-25T10:28:05.973Z,57.50
2018-01-25T10:30:34.548Z,57.50
2018-01-25T10:33:03.608Z,57.50
2018-01-25T10:35:32.652Z,57.20
2018-01-25T10:38:00.968Z,57.10
2018-01-25T10:40:29.246Z,57.10
2018-01-25T10:42:57.616Z,57.10
2018-01-25T10:45:25.959Z,57.10
2018-01-25T10:47:54.586Z,57.00
2018-01-25T10:50:22.894Z,57.10
2018-01-25T10:52:51.943Z,57.00
2018-01-25T10:55:20.242Z,57.00
2018-01-25T10:57:48.565Z,57.00
2018-01-25T11:00:16.861Z,57.00
2018-01-25T11:02:45.128Z,57.10
2018-01-25T11:05:13.439Z,57.10
2018-01-25T11:07:41.709Z,56.90
2018-01-25T11:10:10.371Z,57.00
2018-01-25T11:12:38.639Z,57.10
2018-01-25T11:15:06.916Z,57.00
2018-01-25T11:17:35.295Z,57.00
2018-01-25T11:20:03.577Z,56.90
2018-01-25T11:22:31.910Z,56.90
2018-01-25T11:25:00.214Z,56.80
2018-01-25T11:27:29.289Z,56.50
2018-01-25T11:29:57.609Z,56.50
2018-01-25T11:32:26.161Z,56.40
2018-01-25T11:34:55.229Z,56.20
2018-01-25T11:37:24.304Z,56.30
2018-01-25T11:39:52.609Z,56.20
2018-01-25T11:42:20.953Z,56.30
2018-01-25T11:44:49.192Z,56.20
2018-01-25T11:47:18.249Z,56.60
2018-01-25T11:49:46.837Z,56.00
2018-01-25T11:52:15.109Z,55.90
2018-01-25T11:54:43.497Z,55.70
2018-01-25T11:57:11.801Z,55.80
2018-01-25T11:59:40.081Z,55.70
2018-01-25T12:02:08.398Z,55.50
2018-01-25T12:04:36.709Z,55.50
2018-01-25T12:07:05.316Z,55.50
2018-01-25T12:09:33.593Z,55.60
2018-01-25T12:12:01.889Z,55.80
2018-01-25T12:14:30.968Z,55.60
2018-01-25T12:16:59.250Z,55.60
2018-01-25T12:19:27.578Z,55.40
2018-01-25T12:21:55.905Z,55.30
2018-01-25T12:24:24.177Z,55.30
2018-01-25T12:26:52.453Z,55.10
2018-01-25T12:29:21.034Z,55.60
2018-01-25T12:31:49.293Z,55.10
2018-01-25T12:34:17.577Z,54.90
2018-01-25T12:36:45.904Z,54.90
2018-01-25T12:39:15.790Z,54.90
2018-01-25T12:41:44.099Z,54.90
2018-01-25T12:44:13.129Z,55.20
2018-01-25T12:46:41.708Z,55.10
2018-01-25T12:49:09.976Z,55.00
2018-01-25T12:51:38.280Z,54.90
2018-01-25T12:54:06.584Z,54.80
2018-01-25T12:56:37.804Z,54.70
2018-01-25T12:59:06.125Z,54.70
2018-01-25T13:01:35.165Z,54.80
2018-01-25T13:04:03.782Z,54.90
2018-01-25T13:06:32.078Z,55.00
2018-01-25T13:09:01.134Z,55.10
2018-01-25T13:11:29.465Z,55.10
2018-01-25T13:13:58.507Z,55.30
2018-01-25T13:16:26.823Z,55.10
2018-01-25T13:18:55.879Z,54.90
2018-01-25T13:21:24.175Z,54.90
2018-01-25T13:23:52.451Z,54.80
2018-01-25T13:26:21.040Z,54.90
2018-01-25T13:28:49.324Z,54.90
2018-01-25T13:31:17.603Z,55.00
2018-01-25T13:33:45.932Z,54.90
2018-01-25T13:36:14.192Z,54.90
2018-01-25T13:38:42.502Z,54.80
2018-01-25T13:41:10.801Z,55.50
2018-01-25T13:43:39.098Z,54.90
2018-01-25T13:46:07.457Z,54.90
2018-01-25T13:48:36.041Z,54.90
2018-01-25T13:51:04.345Z,54.90
2018-01-25T13:53:32.614Z,54.90
2018-01-25T13:56:00.925Z,54.90
2018-01-25T13:58:29.214Z,54.80
2018-01-25T14:00:57.520Z,54.80
2018-01-25T14:03:25.819Z,54.90
2018-01-25T14:05:54.479Z,54.80
2018-01-25T14:08:22.735Z,55.00
2018-01-25T14:10:51.022Z,55.00
2018-01-25T14:13:19.331Z,55.00
2018-01-25T14:15:47.619Z,55.00
2018-01-25T14:18:16.678Z,55.10
2018-01-25T14:20:46.436Z,55.20
2018-01-25T14:23:15.720Z,55.20
2018-01-25T14:25:44.007Z,55.10
2018-01-25T14:28:12.564Z,55.10
2018-01-25T14:30:40.860Z,55.00
2018-01-25T14:33:09.133Z,55.10
2018-01-25T14:35:37.587Z,55.10
2018-01-25T14:38:06.682Z,55.00
2018-01-25T14:40:35.742Z,55.40
2018-01-25T14:43:04.965Z,55.10
2018-01-25T14:45:34.153Z,55.10
2018-01-25T14:48:03.234Z,55.20
2018-01-25T14:50:31.824Z,55.20
2018-01-25T14:53:00.092Z,55.20
2018-01-25T14:55:28.366Z,55.90
2018-01-25T14:57:56.682Z,55.90
2018-01-25T15:00:24.992Z,55.30
2018-01-25T15:02:53.320Z,55.30
2018-01-25T15:05:22.392Z,55.30
2018-01-25T15:07:52.537Z,55.30
2018-01-25T15:10:21.806Z,55.30
2018-01-25T15:12:50.183Z,55.40
2018-01-25T15:15:18.641Z,55.60
2018-01-25T15:17:47.969Z,55.40
2018-01-25T15:20:16.361Z,55.40
2018-01-25T15:22:44.721Z,55.50
2018-01-25T15:25:18.898Z,56.10
2018-01-25T15:27:47.381Z,55.60
2018-01-25T15:30:15.558Z,55.50
2018-01-25T15:32:44.712Z,55.50
2018-01-25T15:35:13.245Z,55.60
2018-01-25T15:37:41.544Z,55.50
2018-01-25T15:40:09.847Z,55.60
2018-01-25T15:42:38.165Z,55.50
2018-01-25T15:45:07.215Z,55.70
2018-01-25T15:47:35.545Z,55.60
2018-01-25T15:50:04.599Z,55.70
2018-01-25T15:52:32.930Z,55.80
2018-01-25T15:55:01.225Z,55.80
2018-01-25T15:57:29.816Z,55.90
2018-01-25T15:59:58.102Z,55.80
2018-01-25T16:02:26.412Z,55.90
2018-01-25T16:04:55.534Z,56.00
2018-01-25T16:07:23.862Z,56.00
2018-01-25T16:09:52.211Z,56.10
2018-01-25T16:12:20.635Z,56.10
2018-01-25T16:14:49.326Z,56.10
2018-01-25T16:17:17.613Z,56.10
2018-01-25T16:19:45.917Z,56.30
2018-01-25T16:22:14.224Z,56.10
2018-01-25T16:24:42.507Z,56.10
2018-01-25T16:27:10.813Z,56.10
2018-01-25T16:29:39.091Z,56.10
2018-01-25T16:32:07.434Z,56.10
2018-01-25T16:34:35.734Z,56.20
2018-01-25T16:37:04.078Z,56.20
2018-01-25T16:39:32.461Z,56.20
2018-01-25T16:42:00.787Z,56.30
2018-01-25T16:44:29.117Z,56.20
2018-01-25T16:46:57.419Z,56.30
2018-01-25T16:49:25.766Z,56.20
2018-01-25T16:51:54.086Z,56.30
2018-01-25T16:54:22.406Z,56.30
2018-01-25T16:56:51.654Z,56.40
2018-01-25T16:59:19.954Z,56.20
2018-01-25T17:01:48.298Z,56.30
2018-01-25T17:04:16.826Z,56.30
2018-01-25T17:06:45.125Z,56.30
2018-01-25T17:09:13.468Z,56.40
2018-01-25T17:11:42.543Z,56.40
2018-01-25T17:14:10.840Z,56.50
2018-01-25T17:16:39.336Z,56.40
2018-01-25T17:19:07.693Z,56.50
2018-01-25T17:21:36.015Z,56.50
2018-01-25T17:24:05.118Z,56.50
2018-01-25T17:26:33.411Z,56.50
2018-01-25T17:29:01.721Z,56.60
2018-01-25T17:31:30.032Z,56.60
2018-01-25T17:33:58.330Z,56.60
2018-01-25T17:36:26.692Z,56.70
2018-01-25T17:38:55.010Z,56.70
2018-01-25T17:41:24.089Z,56.80
2018-01-25T17:43:52.401Z,56.80
2018-01-25T17:46:20.767Z,56.90
2018-01-25T17:48:49.090Z,56.90
2018-01-25T17:51:17.393Z,56.90
2018-01-25T17:53:45.772Z,56.90
2018-01-25T17:56:14.827Z,57.00
2018-01-25T17:58:43.144Z,57.00
2018-01-25T18:01:12.229Z,57.00
2018-01-25T18:03:40.578Z,57.10
2018-01-25T18:06:08.873Z,57.10
2018-01-25T18:08:38.282Z,57.10
2018-01-25T18:11:06.579Z,57.10
2018-01-25T18:13:35.866Z,57.70
2018-01-25T18:16:04.201Z,57.20
2018-01-25T18:18:32.514Z,57.30
2018-01-25T18:21:00.847Z,57.30
2018-01-25T18:23:29.161Z,57.70
2018-01-25T18:25:57.487Z,57.40
2018-01-25T18:28:25.826Z,57.40
2018-01-25T18:30:54.135Z,57.50
2018-01-25T18:33:23.194Z,57.40
2018-01-25T18:35:51.521Z,57.40
2018-01-25T18:38:20.589Z,57.40
2018-01-25T18:40:48.927Z,57.50
2018-01-25T18:43:17.278Z,57.40
2018-01-25T18:45:46.341Z,57.30
2018-01-25T18:48:14.703Z,57.40
2018-01-25T18:50:43.006Z,57.50
2018-01-25T18:53:11.342Z,57.40
2018-01-25T18:55:39.650Z,57.30
2018-01-25T18:58:07.973Z,57.30
2018-01-25T19:00:37.032Z,57.20
2018-01-25T19:03:06.094Z,57.20
2018-01-25T19:05:34.416Z,57.20
2018-01-25T19:08:03.251Z,57.20
2018-01-25T19:10:31.538Z,57.30
2018-01-25T19:12:59.935Z,57.20
2018-01-25T19:15:28.216Z,57.20
2018-01-25T19:17:56.548Z,57.10
2018-01-25T19:20:24.938Z,57.10
2018-01-25T19:22:53.426Z,57.30
2018-01-25T19:25:21.724Z,57.10
2018-01-25T19:27:50.172Z,57.10
2018-01-25T19:30:18.513Z,57.00
2018-01-25T19:32:46.828Z,57.10
2018-01-25T19:35:15.170Z,57.20
2018-01-25T19:37:43.554Z,57.80
2018-01-25T19:40:13.013Z,57.10
2018-01-25T19:42:41.343Z,57.20
2018-01-25T19:45:10.045Z,57.20
2018-01-25T19:47:41.648Z,57.20
2018-01-25T19:50:10.106Z,57.20
2018-01-25T19:52:38.773Z,57.20
2018-01-25T19:55:07.836Z,57.10
2018-01-25T19:57:36.167Z,57.10
2018-01-25T20:00:04.509Z,57.10
2018-01-25T20:02:33.823Z,57.10
2018-01-25T20:05:02.162Z,57.10
2018-01-25T20:07:30.602Z,57.10
2018-01-25T20:09:59.014Z,57.10
2018-01-25T20:12:27.402Z,57.10
2018-01-25T20:14:55.827Z,57.10
2018-01-25T20:17:24.173Z,57.10
2018-01-25T20:19:52.522Z,57.00
2018-01-25T20:22:20.846Z,57.00
2018-01-25T20:24:49.185Z,57.00
2018-01-25T20:27:17.556Z,57.10
2018-01-25T20:29:45.902Z,56.90
2018-01-25T20:32:14.239Z,57.00
2018-01-25T20:34:42.540Z,57.00
2018-01-25T20:37:10.975Z,57.00
2018-01-25T20:39:40.782Z,57.80
2018-01-25T20:42:09.191Z,57.90
2018-01-25T20:44:37.559Z,57.90
2018-01-25T20:47:05.881Z,58.00
2018-01-25T20:49:34.237Z,57.90
2018-01-25T20:52:02.644Z,58.00
2018-01-25T20:54:31.702Z,58.00
2018-01-25T20:57:00.830Z,58.10
2018-01-25T20:59:29.187Z,57.80
2018-01-25T21:01:57.525Z,58.00
2018-01-25T21:04:25.877Z,58.00
2018-01-25T21:06:55.154Z,58.60
2018-01-25T21:09:23.464Z,58.00
2018-01-25T21:11:51.841Z,58.10
2018-01-25T21:14:20.129Z,58.10
2018-01-25T21:16:49.377Z,58.20
2018-01-25T21:19:17.749Z,57.70
2018-01-25T21:21:46.464Z,58.20
2018-01-25T21:24:15.735Z,58.20
2018-01-25T21:26:44.033Z,58.30
2018-01-25T21:29:12.383Z,58.30
2018-01-25T21:31:40.695Z,58.30
2018-01-25T21:34:09.047Z,58.40
2018-01-25T21:36:37.344Z,58.60
2018-01-25T21:39:05.690Z,58.50
2018-01-25T21:41:34.113Z,58.60
2018-01-25T21:44:02.437Z,58.70
2018-01-25T21:46:30.817Z,58.70
2018-01-25T21:48:59.096Z,58.80
2018-01-25T21:51:27.510Z,58.70
2018-01-25T21:53:55.822Z,58.80
2018-01-25T21:56:24.137Z,58.70
2018-01-25T21:58:52.446Z,58.80
2018-01-25T22:01:20.797Z,58.90
2018-01-25T22:03:49.141Z,58.90
2018-01-25T22:06:17.471Z,59.00
2018-01-25T22:08:45.814Z,59.00
2018-01-25T22:11:14.122Z,59.10
2018-01-25T22:13:42.461Z,59.10
2018-01-25T22:16:11.524Z,59.00
2018-01-25T22:18:39.892Z,59.00
2018-01-25T22:21:08.200Z,59.00
2018-01-25T22:23:36.562Z,59.10
2018-01-25T22:26:05.797Z,59.10
2018-01-25T22:28:34.865Z,59.00
2018-01-25T22:31:03.431Z,59.20
2018-01-25T22:33:31.738Z,59.10
2018-01-25T22:36:00.068Z,59.10
2018-01-25T22:38:28.423Z,59.20
2018-01-25T22:40:57.513Z,59.80
2018-01-25T22:43:26.565Z,59.20
2018-01-25T22:45:54.941Z,59.20
2018-01-25T22:48:23.265Z,59.30
2018-01-25T22:50:52.323Z,59.20
2018-01-25T22:53:20.645Z,59.20
2018-01-25T22:55:49.782Z,59.80
2018-01-25T22:58:18.082Z,59.20
2018-01-25T23:00:49.164Z,59.30
2018-01-25T23:03:17.428Z,59.30
2018-01-25T23:05:45.794Z,58.90
2018-01-25T23:08:14.586Z,59.30
2018-01-25T23:10:42.866Z,59.20
2018-01-25T23:13:11.213Z,59.20
2018-01-25T23:15:39.516Z,59.20
2018-01-25T23:18:08.608Z,59.20
2018-01-25T23:20:36.866Z,59.20
2018-01-25T23:23:05.211Z,59.10
2018-01-25T23:25:33.490Z,59.10
2018-01-25T23:28:01.800Z,59.10
2018-01-25T23:30:30.089Z,59.00
2018-01-25T23:32:58.398Z,59.00
2018-01-25T23:35:26.677Z,59.10
2018-01-25T23:37:55.760Z,59.00
2018-01-25T23:40:24.065Z,59.00
2018-01-25T23:42:52.366Z,59.10
2018-01-25T23:45:20.695Z,59.00
2018-01-25T23:47:48.965Z,59.00
2018-01-25T23:50:17.285Z,59.00
2018-01-25T23:52:45.582Z,59.00
2018-01-25T23:55:13.887Z,59.00
2018-01-25T23:57:42.303Z,59.00
